sensor_id;sensor_type;location;lat;lon;timestamp;temperature;humidity
10883;DHT22;5494;51.796;10.952;2023-02-21T00:01:43;10.10;99.90
10883;DHT22;5494;51.796;10.952;2023-02-21T00:04:29;10.00;99.90
10883;DHT22;5494;51.796;10.952;2023-02-21T00:07:21;10.10;99.90
10883;DHT22;5494;51.796;10.952;2023-02-21T00:10:07;10.00;99.90
10883;DHT22;5494;51.796;10.952;2023-02-21T00:12:58;10.10;99.90
10883;DHT22;5494;51.796;10.952;2023-02-21T00:15:44;10.10;99.90
10883;DHT22;5494;51.796;10.952;2023-02-21T00:18:33;10.10;99.90
10883;DHT22;5494;51.796;10.952;2023-02-21T00:21:19;10.10;99.90
10883;DHT22;5494;51.796;10.952;2023-02-21T00:24:05;10.10;99.90
10883;DHT22;5494;51.796;10.952;2023-02-21T00:26:52;10.10;99.90
10883;DHT22;5494;51.796;10.952;2023-02-21T00:29:38;10.10;99.90
10883;DHT22;5494;51.796;10.952;2023-02-21T00:32:24;10.10;99.90
10883;DHT22;5494;51.796;10.952;2023-02-21T00:35:09;10.20;99.90
10883;DHT22;5494;51.796;10.952;2023-02-21T00:37:56;10.20;99.90
10883;DHT22;5494;51.796;10.952;2023-02-21T00:40:41;10.20;99.90
10883;DHT22;5494;51.796;10.952;2023-02-21T00:43:27;10.20;99.90
10883;DHT22;5494;51.796;10.952;2023-02-21T00:46:14;10.20;99.90
10883;DHT22;5494;51.796;10.952;2023-02-21T00:49:01;10.30;99.90
10883;DHT22;5494;51.796;10.952;2023-02-21T00:51:48;10.20;99.90
10883;DHT22;5494;51.796;10.952;2023-02-21T00:54:37;10.20;99.90
10883;DHT22;5494;51.796;10.952;2023-02-21T00:57:23;10.20;99.90
10883;DHT22;5494;51.796;10.952;2023-02-21T01:00:15;10.30;99.90
10883;DHT22;5494;51.796;10.952;2023-02-21T01:03:03;10.20;99.90
10883;DHT22;5494;51.796;10.952;2023-02-21T01:05:50;10.20;99.90
10883;DHT22;5494;51.796;10.952;2023-02-21T01:08:39;10.30;99.90
10883;DHT22;5494;51.796;10.952;2023-02-21T01:11:28;10.30;99.90
10883;DHT22;5494;51.796;10.952;2023-02-21T01:14:14;10.30;99.90
10883;DHT22;5494;51.796;10.952;2023-02-21T01:17:00;10.30;99.90
10883;DHT22;5494;51.796;10.952;2023-02-21T01:19:47;10.30;99.90
10883;DHT22;5494;51.796;10.952;2023-02-21T01:22:33;10.40;99.90
10883;DHT22;5494;51.796;10.952;2023-02-21T01:25:19;10.30;99.90
10883;DHT22;5494;51.796;10.952;2023-02-21T01:28:06;10.30;99.90
10883;DHT22;5494;51.796;10.952;2023-02-21T01:30:51;10.30;99.90
10883;DHT22;5494;51.796;10.952;2023-02-21T01:33:38;10.30;99.90
10883;DHT22;5494;51.796;10.952;2023-02-21T01:36:26;10.30;99.90
10883;DHT22;5494;51.796;10.952;2023-02-21T01:39:13;10.30;99.90
10883;DHT22;5494;51.796;10.952;2023-02-21T01:41:59;10.30;99.90
10883;DHT22;5494;51.796;10.952;2023-02-21T01:44:46;10.20;99.90
10883;DHT22;5494;51.796;10.952;2023-02-21T01:47:33;10.30;99.90
10883;DHT22;5494;51.796;10.952;2023-02-21T01:50:21;10.30;99.90
10883;DHT22;5494;51.796;10.952;2023-02-21T01:53:15;10.30;99.90
10883;DHT22;5494;51.796;10.952;2023-02-21T01:56:04;10.30;99.90
10883;DHT22;5494;51.796;10.952;2023-02-21T01:58:53;10.30;99.90
10883;DHT22;5494;51.796;10.952;2023-02-21T02:01:46;10.30;99.90
10883;DHT22;5494;51.796;10.952;2023-02-21T02:04:36;10.30;99.90
10883;DHT22;5494;51.796;10.952;2023-02-21T02:07:22;10.40;99.90
10883;DHT22;5494;51.796;10.952;2023-02-21T02:10:12;10.30;99.90
10883;DHT22;5494;51.796;10.952;2023-02-21T02:13:21;10.40;99.90
10883;DHT22;5494;51.796;10.952;2023-02-21T02:16:04;10.40;99.90
10883;DHT22;5494;51.796;10.952;2023-02-21T02:22:30;10.30;99.90
10883;DHT22;5494;51.796;10.952;2023-02-21T02:25:28;10.40;99.90
10883;DHT22;5494;51.796;10.952;2023-02-21T02:28:26;10.30;99.90
10883;DHT22;5494;51.796;10.952;2023-02-21T02:31:27;10.40;99.90
10883;DHT22;5494;51.796;10.952;2023-02-21T02:34:42;10.30;99.90
10883;DHT22;5494;51.796;10.952;2023-02-21T02:37:30;10.30;99.90
10883;DHT22;5494;51.796;10.952;2023-02-21T02:40:08;10.30;99.90
10883;DHT22;5494;51.796;10.952;2023-02-21T02:42:52;10.30;99.90
10883;DHT22;5494;51.796;10.952;2023-02-21T02:45:30;10.30;99.90
10883;DHT22;5494;51.796;10.952;2023-02-21T02:48:13;10.30;99.90
10883;DHT22;5494;51.796;10.952;2023-02-21T02:50:49;10.30;99.90
10883;DHT22;5494;51.796;10.952;2023-02-21T02:53:21;10.30;99.90
10883;DHT22;5494;51.796;10.952;2023-02-21T02:55:56;10.30;99.90
10883;DHT22;5494;51.796;10.952;2023-02-21T02:58:30;10.30;99.90
10883;DHT22;5494;51.796;10.952;2023-02-21T03:01:15;10.30;99.90
10883;DHT22;5494;51.796;10.952;2023-02-21T03:04:11;10.30;99.90
10883;DHT22;5494;51.796;10.952;2023-02-21T03:07:00;10.30;99.90
10883;DHT22;5494;51.796;10.952;2023-02-21T03:09:45;10.20;99.90
10883;DHT22;5494;51.796;10.952;2023-02-21T03:12:28;10.20;99.90
10883;DHT22;5494;51.796;10.952;2023-02-21T03:15:07;10.20;99.90
10883;DHT22;5494;51.796;10.952;2023-02-21T03:17:43;10.20;99.90
10883;DHT22;5494;51.796;10.952;2023-02-21T03:20:19;10.10;99.90
10883;DHT22;5494;51.796;10.952;2023-02-21T03:22:51;10.10;99.90
10883;DHT22;5494;51.796;10.952;2023-02-21T03:25:23;10.10;99.90
10883;DHT22;5494;51.796;10.952;2023-02-21T03:27:55;10.10;99.90
10883;DHT22;5494;51.796;10.952;2023-02-21T03:30:26;10.10;99.90
10883;DHT22;5494;51.796;10.952;2023-02-21T03:32:57;10.10;99.90
10883;DHT22;5494;51.796;10.952;2023-02-21T03:35:28;10.10;99.90
10883;DHT22;5494;51.796;10.952;2023-02-21T03:37:59;10.20;99.90
10883;DHT22;5494;51.796;10.952;2023-02-21T03:40:29;10.20;99.90
10883;DHT22;5494;51.796;10.952;2023-02-21T03:43:02;10.20;99.90
10883;DHT22;5494;51.796;10.952;2023-02-21T03:45:39;10.20;99.90
10883;DHT22;5494;51.796;10.952;2023-02-21T03:48:16;10.20;99.90
10883;DHT22;5494;51.796;10.952;2023-02-21T03:51:01;10.30;99.90
10883;DHT22;5494;51.796;10.952;2023-02-21T03:53:36;10.30;99.90
10883;DHT22;5494;51.796;10.952;2023-02-21T03:56:05;10.30;99.90
10883;DHT22;5494;51.796;10.952;2023-02-21T03:58:54;10.30;99.90
10883;DHT22;5494;51.796;10.952;2023-02-21T04:01:22;10.30;99.90
10883;DHT22;5494;51.796;10.952;2023-02-21T04:03:52;10.30;99.90
10883;DHT22;5494;51.796;10.952;2023-02-21T04:06:21;10.20;99.90
10883;DHT22;5494;51.796;10.952;2023-02-21T04:08:50;10.20;99.90
10883;DHT22;5494;51.796;10.952;2023-02-21T04:11:20;10.10;99.90
10883;DHT22;5494;51.796;10.952;2023-02-21T04:13:51;10.10;99.90
10883;DHT22;5494;51.796;10.952;2023-02-21T04:16:19;10.10;99.90
10883;DHT22;5494;51.796;10.952;2023-02-21T04:18:50;10.10;99.90
10883;DHT22;5494;51.796;10.952;2023-02-21T04:21:19;10.10;99.90
10883;DHT22;5494;51.796;10.952;2023-02-21T04:23:50;10.10;99.90
10883;DHT22;5494;51.796;10.952;2023-02-21T04:26:18;10.10;99.90
10883;DHT22;5494;51.796;10.952;2023-02-21T04:28:49;10.10;99.90
10883;DHT22;5494;51.796;10.952;2023-02-21T04:31:18;10.10;99.90
10883;DHT22;5494;51.796;10.952;2023-02-21T04:33:47;10.00;99.90
10883;DHT22;5494;51.796;10.952;2023-02-21T04:36:25;10.00;99.90
10883;DHT22;5494;51.796;10.952;2023-02-21T04:38:55;10.00;99.90
10883;DHT22;5494;51.796;10.952;2023-02-21T04:41:23;9.90;99.90
10883;DHT22;5494;51.796;10.952;2023-02-21T04:43:51;9.90;99.90
10883;DHT22;5494;51.796;10.952;2023-02-21T04:46:20;9.90;99.90
10883;DHT22;5494;51.796;10.952;2023-02-21T04:48:49;9.90;99.90
10883;DHT22;5494;51.796;10.952;2023-02-21T04:51:21;9.80;99.90
10883;DHT22;5494;51.796;10.952;2023-02-21T04:53:52;9.90;99.90
10883;DHT22;5494;51.796;10.952;2023-02-21T04:56:24;9.80;99.90
10883;DHT22;5494;51.796;10.952;2023-02-21T04:58:53;9.90;99.90
10883;DHT22;5494;51.796;10.952;2023-02-21T05:01:21;9.90;99.90
10883;DHT22;5494;51.796;10.952;2023-02-21T05:03:53;9.90;99.90
10883;DHT22;5494;51.796;10.952;2023-02-21T05:06:22;9.90;99.90
10883;DHT22;5494;51.796;10.952;2023-02-21T05:08:52;9.90;99.90
10883;DHT22;5494;51.796;10.952;2023-02-21T05:11:22;10.00;99.90
10883;DHT22;5494;51.796;10.952;2023-02-21T05:13:51;10.00;99.90
10883;DHT22;5494;51.796;10.952;2023-02-21T05:16:20;10.00;99.90
10883;DHT22;5494;51.796;10.952;2023-02-21T05:18:48;10.00;99.90
10883;DHT22;5494;51.796;10.952;2023-02-21T05:21:18;10.00;99.90
10883;DHT22;5494;51.796;10.952;2023-02-21T05:23:46;10.10;99.90
10883;DHT22;5494;51.796;10.952;2023-02-21T05:26:25;10.10;99.90
10883;DHT22;5494;51.796;10.952;2023-02-21T05:28:56;10.10;99.90
10883;DHT22;5494;51.796;10.952;2023-02-21T05:31:27;10.20;99.90
10883;DHT22;5494;51.796;10.952;2023-02-21T05:33:55;10.20;99.90
10883;DHT22;5494;51.796;10.952;2023-02-21T05:36:23;10.10;99.90
10883;DHT22;5494;51.796;10.952;2023-02-21T05:38:53;10.10;99.90
10883;DHT22;5494;51.796;10.952;2023-02-21T05:41:24;10.10;99.90
10883;DHT22;5494;51.796;10.952;2023-02-21T05:43:52;10.20;99.90
10883;DHT22;5494;51.796;10.952;2023-02-21T05:46:23;10.10;99.90
10883;DHT22;5494;51.796;10.952;2023-02-21T05:48:54;11.10;99.90
10883;DHT22;5494;51.796;10.952;2023-02-21T05:51:23;10.20;99.90
10883;DHT22;5494;51.796;10.952;2023-02-21T05:53:53;10.10;99.90
10883;DHT22;5494;51.796;10.952;2023-02-21T05:56:21;10.20;99.90
10883;DHT22;5494;51.796;10.952;2023-02-21T05:58:50;10.20;99.90
10883;DHT22;5494;51.796;10.952;2023-02-21T06:01:18;10.10;99.90
10883;DHT22;5494;51.796;10.952;2023-02-21T06:03:46;10.20;99.90
10883;DHT22;5494;51.796;10.952;2023-02-21T06:06:15;10.10;99.90
10883;DHT22;5494;51.796;10.952;2023-02-21T06:08:44;10.10;99.90
10883;DHT22;5494;51.796;10.952;2023-02-21T06:11:14;10.10;99.90
10883;DHT22;5494;51.796;10.952;2023-02-21T06:13:42;10.20;99.90
10883;DHT22;5494;51.796;10.952;2023-02-21T06:16:11;10.20;99.90
10883;DHT22;5494;51.796;10.952;2023-02-21T06:18:40;10.20;99.90
10883;DHT22;5494;51.796;10.952;2023-02-21T06:21:08;10.30;99.90
10883;DHT22;5494;51.796;10.952;2023-02-21T06:23:36;10.30;99.90
10883;DHT22;5494;51.796;10.952;2023-02-21T06:26:04;10.30;99.90
10883;DHT22;5494;51.796;10.952;2023-02-21T06:28:32;10.30;99.90
10883;DHT22;5494;51.796;10.952;2023-02-21T06:31:01;10.20;99.90
10883;DHT22;5494;51.796;10.952;2023-02-21T06:33:31;10.20;99.90
10883;DHT22;5494;51.796;10.952;2023-02-21T06:36:03;10.10;99.90
10883;DHT22;5494;51.796;10.952;2023-02-21T06:38:32;10.10;99.90
10883;DHT22;5494;51.796;10.952;2023-02-21T06:41:00;10.10;99.90
10883;DHT22;5494;51.796;10.952;2023-02-21T06:43:31;10.20;99.90
10883;DHT22;5494;51.796;10.952;2023-02-21T06:45:59;10.20;99.90
10883;DHT22;5494;51.796;10.952;2023-02-21T06:48:27;10.20;99.90
10883;DHT22;5494;51.796;10.952;2023-02-21T06:50:57;10.20;99.90
10883;DHT22;5494;51.796;10.952;2023-02-21T06:53:25;10.20;99.90
10883;DHT22;5494;51.796;10.952;2023-02-21T06:55:53;10.20;99.90
10883;DHT22;5494;51.796;10.952;2023-02-21T06:58:21;10.20;99.90
10883;DHT22;5494;51.796;10.952;2023-02-21T07:00:49;10.30;99.90
10883;DHT22;5494;51.796;10.952;2023-02-21T07:03:17;10.40;99.90
10883;DHT22;5494;51.796;10.952;2023-02-21T07:05:45;10.40;99.90
10883;DHT22;5494;51.796;10.952;2023-02-21T07:08:15;10.50;99.90
10883;DHT22;5494;51.796;10.952;2023-02-21T07:10:43;10.60;99.90
10883;DHT22;5494;51.796;10.952;2023-02-21T07:13:12;10.60;99.90
10883;DHT22;5494;51.796;10.952;2023-02-21T07:15:39;10.70;99.90
10883;DHT22;5494;51.796;10.952;2023-02-21T07:18:07;10.70;99.90
10883;DHT22;5494;51.796;10.952;2023-02-21T07:20:35;10.70;99.90
10883;DHT22;5494;51.796;10.952;2023-02-21T07:23:02;10.70;99.90
10883;DHT22;5494;51.796;10.952;2023-02-21T07:25:34;10.80;99.90
10883;DHT22;5494;51.796;10.952;2023-02-21T07:28:02;10.80;99.90
10883;DHT22;5494;51.796;10.952;2023-02-21T07:30:30;10.80;99.90
10883;DHT22;5494;51.796;10.952;2023-02-21T07:32:59;10.90;99.90
10883;DHT22;5494;51.796;10.952;2023-02-21T07:35:27;10.90;99.90
10883;DHT22;5494;51.796;10.952;2023-02-21T07:37:55;11.00;99.90
10883;DHT22;5494;51.796;10.952;2023-02-21T07:40:22;11.00;99.90
10883;DHT22;5494;51.796;10.952;2023-02-21T07:42:52;11.00;99.90
10883;DHT22;5494;51.796;10.952;2023-02-21T07:45:21;11.10;99.90
10883;DHT22;5494;51.796;10.952;2023-02-21T07:47:49;11.10;99.90
10883;DHT22;5494;51.796;10.952;2023-02-21T07:50:18;11.10;99.90
10883;DHT22;5494;51.796;10.952;2023-02-21T07:52:49;11.10;99.90
10883;DHT22;5494;51.796;10.952;2023-02-21T07:55:17;11.10;99.90
10883;DHT22;5494;51.796;10.952;2023-02-21T07:57:45;11.20;99.90
10883;DHT22;5494;51.796;10.952;2023-02-21T08:00:15;11.30;99.90
10883;DHT22;5494;51.796;10.952;2023-02-21T08:02:45;11.30;99.90
10883;DHT22;5494;51.796;10.952;2023-02-21T08:05:16;11.30;99.90
10883;DHT22;5494;51.796;10.952;2023-02-21T08:07:45;11.30;99.90
10883;DHT22;5494;51.796;10.952;2023-02-21T08:10:20;11.30;99.90
10883;DHT22;5494;51.796;10.952;2023-02-21T08:12:50;11.40;99.90
10883;DHT22;5494;51.796;10.952;2023-02-21T08:15:19;11.40;99.90
10883;DHT22;5494;51.796;10.952;2023-02-21T08:17:49;11.40;99.90
10883;DHT22;5494;51.796;10.952;2023-02-21T08:20:18;11.50;99.90
10883;DHT22;5494;51.796;10.952;2023-02-21T08:22:46;11.50;99.90
10883;DHT22;5494;51.796;10.952;2023-02-21T08:25:15;11.50;99.90
10883;DHT22;5494;51.796;10.952;2023-02-21T08:27:43;11.50;99.90
10883;DHT22;5494;51.796;10.952;2023-02-21T08:30:13;11.50;99.90
10883;DHT22;5494;51.796;10.952;2023-02-21T08:32:45;11.60;99.90
10883;DHT22;5494;51.796;10.952;2023-02-21T08:35:14;11.60;99.90
10883;DHT22;5494;51.796;10.952;2023-02-21T08:37:44;11.60;99.90
10883;DHT22;5494;51.796;10.952;2023-02-21T08:40:13;11.60;99.90
10883;DHT22;5494;51.796;10.952;2023-02-21T08:42:43;11.60;99.90
10883;DHT22;5494;51.796;10.952;2023-02-21T08:45:16;11.60;99.90
10883;DHT22;5494;51.796;10.952;2023-02-21T08:47:47;11.70;99.90
10883;DHT22;5494;51.796;10.952;2023-02-21T08:50:15;11.70;99.90
10883;DHT22;5494;51.796;10.952;2023-02-21T08:52:45;11.70;99.90
10883;DHT22;5494;51.796;10.952;2023-02-21T08:55:13;11.70;99.90
10883;DHT22;5494;51.796;10.952;2023-02-21T08:57:42;11.80;99.90
10883;DHT22;5494;51.796;10.952;2023-02-21T09:00:12;11.80;99.90
10883;DHT22;5494;51.796;10.952;2023-02-21T09:02:41;11.90;99.90
10883;DHT22;5494;51.796;10.952;2023-02-21T09:05:13;12.00;99.90
10883;DHT22;5494;51.796;10.952;2023-02-21T09:07:43;12.10;99.90
10883;DHT22;5494;51.796;10.952;2023-02-21T09:10:11;12.30;99.90
10883;DHT22;5494;51.796;10.952;2023-02-21T09:12:39;12.60;99.90
10883;DHT22;5494;51.796;10.952;2023-02-21T09:15:08;13.10;99.90
10883;DHT22;5494;51.796;10.952;2023-02-21T09:17:36;13.70;99.90
10883;DHT22;5494;51.796;10.952;2023-02-21T09:20:08;14.00;99.90
10883;DHT22;5494;51.796;10.952;2023-02-21T09:22:42;14.00;99.90
10883;DHT22;5494;51.796;10.952;2023-02-21T09:25:11;14.10;99.90
10883;DHT22;5494;51.796;10.952;2023-02-21T09:27:40;14.00;99.90
10883;DHT22;5494;51.796;10.952;2023-02-21T09:30:11;13.90;99.90
10883;DHT22;5494;51.796;10.952;2023-02-21T09:32:41;13.80;99.90
10883;DHT22;5494;51.796;10.952;2023-02-21T09:35:12;13.70;99.90
10883;DHT22;5494;51.796;10.952;2023-02-21T09:37:42;13.70;99.90
10883;DHT22;5494;51.796;10.952;2023-02-21T09:40:17;13.70;99.90
10883;DHT22;5494;51.796;10.952;2023-02-21T09:42:55;13.50;99.90
10883;DHT22;5494;51.796;10.952;2023-02-21T09:45:28;13.60;99.90
10883;DHT22;5494;51.796;10.952;2023-02-21T09:48:01;13.60;99.90
10883;DHT22;5494;51.796;10.952;2023-02-21T09:50:41;13.60;99.90
10883;DHT22;5494;51.796;10.952;2023-02-21T09:53:16;13.70;99.90
10883;DHT22;5494;51.796;10.952;2023-02-21T09:55:50;13.80;99.90
10883;DHT22;5494;51.796;10.952;2023-02-21T09:58:21;13.80;99.90
10883;DHT22;5494;51.796;10.952;2023-02-21T10:00:49;13.80;99.90
10883;DHT22;5494;51.796;10.952;2023-02-21T10:03:29;13.80;99.90
10883;DHT22;5494;51.796;10.952;2023-02-21T10:06:20;13.80;99.90
10883;DHT22;5494;51.796;10.952;2023-02-21T10:08:59;13.60;99.90
10883;DHT22;5494;51.796;10.952;2023-02-21T10:11:40;13.60;99.90
10883;DHT22;5494;51.796;10.952;2023-02-21T10:14:26;13.70;99.90
10883;DHT22;5494;51.796;10.952;2023-02-21T10:17:09;13.80;99.90
10883;DHT22;5494;51.796;10.952;2023-02-21T10:19:47;13.80;99.90
10883;DHT22;5494;51.796;10.952;2023-02-21T10:22:27;13.90;99.90
10883;DHT22;5494;51.796;10.952;2023-02-21T10:25:00;14.20;99.90
10883;DHT22;5494;51.796;10.952;2023-02-21T10:27:49;14.30;99.90
10883;DHT22;5494;51.796;10.952;2023-02-21T10:30:26;14.30;99.90
10883;DHT22;5494;51.796;10.952;2023-02-21T10:32:57;14.40;99.90
10883;DHT22;5494;51.796;10.952;2023-02-21T10:35:25;14.20;99.90
10883;DHT22;5494;51.796;10.952;2023-02-21T10:37:56;14.10;99.90
10883;DHT22;5494;51.796;10.952;2023-02-21T10:40:30;13.90;99.90
10883;DHT22;5494;51.796;10.952;2023-02-21T10:43:08;13.80;99.90
10883;DHT22;5494;51.796;10.952;2023-02-21T10:45:43;13.90;99.90
10883;DHT22;5494;51.796;10.952;2023-02-21T10:48:14;14.00;99.90
10883;DHT22;5494;51.796;10.952;2023-02-21T10:50:51;14.10;99.90
10883;DHT22;5494;51.796;10.952;2023-02-21T10:53:33;14.10;99.90
10883;DHT22;5494;51.796;10.952;2023-02-21T10:56:22;14.10;99.90
10883;DHT22;5494;51.796;10.952;2023-02-21T10:58:56;14.10;99.90
10883;DHT22;5494;51.796;10.952;2023-02-21T11:01:37;14.20;99.90
10883;DHT22;5494;51.796;10.952;2023-02-21T11:04:24;14.30;99.90
10883;DHT22;5494;51.796;10.952;2023-02-21T11:06:57;14.30;99.90
10883;DHT22;5494;51.796;10.952;2023-02-21T11:09:35;14.20;99.90
10883;DHT22;5494;51.796;10.952;2023-02-21T11:12:18;14.20;99.90
10883;DHT22;5494;51.796;10.952;2023-02-21T11:15:10;14.20;99.90
10883;DHT22;5494;51.796;10.952;2023-02-21T11:17:43;14.20;99.90
10883;DHT22;5494;51.796;10.952;2023-02-21T11:20:18;14.20;99.90
10883;DHT22;5494;51.796;10.952;2023-02-21T11:22:49;14.20;99.90
10883;DHT22;5494;51.796;10.952;2023-02-21T11:25:23;14.10;99.90
10883;DHT22;5494;51.796;10.952;2023-02-21T11:28:03;14.10;99.90
10883;DHT22;5494;51.796;10.952;2023-02-21T11:30:35;14.10;99.90
10883;DHT22;5494;51.796;10.952;2023-02-21T11:33:06;14.10;99.90
10883;DHT22;5494;51.796;10.952;2023-02-21T11:35:42;14.20;99.90
10883;DHT22;5494;51.796;10.952;2023-02-21T11:38:29;14.10;99.90
10883;DHT22;5494;51.796;10.952;2023-02-21T11:41:15;14.00;99.90
10883;DHT22;5494;51.796;10.952;2023-02-21T11:43:48;13.90;99.90
10883;DHT22;5494;51.796;10.952;2023-02-21T11:46:29;13.90;99.90
10883;DHT22;5494;51.796;10.952;2023-02-21T11:49:05;13.90;99.90
10883;DHT22;5494;51.796;10.952;2023-02-21T11:51:44;14.00;99.90
10883;DHT22;5494;51.796;10.952;2023-02-21T11:54:17;14.00;99.90
10883;DHT22;5494;51.796;10.952;2023-02-21T11:56:51;14.10;99.90
10883;DHT22;5494;51.796;10.952;2023-02-21T11:59:31;14.10;99.90
10883;DHT22;5494;51.796;10.952;2023-02-21T12:02:44;14.10;99.90
10883;DHT22;5494;51.796;10.952;2023-02-21T12:05:32;14.20;99.90
10883;DHT22;5494;51.796;10.952;2023-02-21T12:08:25;14.20;99.90
10883;DHT22;5494;51.796;10.952;2023-02-21T12:11:22;14.20;99.90
10883;DHT22;5494;51.796;10.952;2023-02-21T12:14:21;14.20;99.90
10883;DHT22;5494;51.796;10.952;2023-02-21T12:17:09;14.30;99.90
10883;DHT22;5494;51.796;10.952;2023-02-21T12:23:07;14.40;99.90
10883;DHT22;5494;51.796;10.952;2023-02-21T12:25:51;14.40;99.90
10883;DHT22;5494;51.796;10.952;2023-02-21T12:28:36;14.40;99.90
10883;DHT22;5494;51.796;10.952;2023-02-21T12:31:23;14.40;99.90
10883;DHT22;5494;51.796;10.952;2023-02-21T12:34:10;14.20;99.90
10883;DHT22;5494;51.796;10.952;2023-02-21T12:37:08;14.00;99.90
10883;DHT22;5494;51.796;10.952;2023-02-21T12:40:03;13.70;99.90
10883;DHT22;5494;51.796;10.952;2023-02-21T12:42:53;13.60;99.90
10883;DHT22;5494;51.796;10.952;2023-02-21T12:45:44;13.40;99.90
10883;DHT22;5494;51.796;10.952;2023-02-21T12:48:29;13.30;99.90
10883;DHT22;5494;51.796;10.952;2023-02-21T12:51:02;13.10;99.90
10883;DHT22;5494;51.796;10.952;2023-02-21T12:53:38;13.10;99.90
10883;DHT22;5494;51.796;10.952;2023-02-21T12:56:16;13.00;99.90
10883;DHT22;5494;51.796;10.952;2023-02-21T12:58:50;13.00;99.90
10883;DHT22;5494;51.796;10.952;2023-02-21T13:01:26;13.00;99.90
10883;DHT22;5494;51.796;10.952;2023-02-21T13:04:11;13.00;99.90
10883;DHT22;5494;51.796;10.952;2023-02-21T13:06:51;13.00;99.90
10883;DHT22;5494;51.796;10.952;2023-02-21T13:09:27;13.20;99.90
10883;DHT22;5494;51.796;10.952;2023-02-21T13:12:04;13.30;99.90
10883;DHT22;5494;51.796;10.952;2023-02-21T13:14:39;13.30;99.90
10883;DHT22;5494;51.796;10.952;2023-02-21T13:17:11;13.40;99.90
10883;DHT22;5494;51.796;10.952;2023-02-21T13:19:53;13.50;99.90
10883;DHT22;5494;51.796;10.952;2023-02-21T13:22:27;13.40;99.90
10883;DHT22;5494;51.796;10.952;2023-02-21T13:25:43;13.40;99.90
10883;DHT22;5494;51.796;10.952;2023-02-21T13:28:23;13.40;99.90
10883;DHT22;5494;51.796;10.952;2023-02-21T13:30:57;13.30;99.90
10883;DHT22;5494;51.796;10.952;2023-02-21T13:33:36;13.20;99.90
10883;DHT22;5494;51.796;10.952;2023-02-21T13:36:21;13.30;99.90
10883;DHT22;5494;51.796;10.952;2023-02-21T13:39:09;13.30;99.90
10883;DHT22;5494;51.796;10.952;2023-02-21T13:41:42;13.40;99.90
10883;DHT22;5494;51.796;10.952;2023-02-21T13:44:18;13.50;99.90
10883;DHT22;5494;51.796;10.952;2023-02-21T13:47:04;13.40;99.90
10883;DHT22;5494;51.796;10.952;2023-02-21T13:49:41;13.40;99.90
10883;DHT22;5494;51.796;10.952;2023-02-21T13:55:22;13.40;99.90
10883;DHT22;5494;51.796;10.952;2023-02-21T14:01:39;13.10;99.90
10883;DHT22;5494;51.796;10.952;2023-02-21T14:07:45;12.80;99.90
10883;DHT22;5494;51.796;10.952;2023-02-21T14:10:25;12.80;99.90
10883;DHT22;5494;51.796;10.952;2023-02-21T14:13:02;12.70;99.90
10883;DHT22;5494;51.796;10.952;2023-02-21T14:15:42;12.70;99.90
10883;DHT22;5494;51.796;10.952;2023-02-21T14:18:21;12.70;99.90
10883;DHT22;5494;51.796;10.952;2023-02-21T14:20:54;12.80;99.90
10883;DHT22;5494;51.796;10.952;2023-02-21T14:23:32;12.80;99.90
10883;DHT22;5494;51.796;10.952;2023-02-21T14:26:34;12.90;99.90
10883;DHT22;5494;51.796;10.952;2023-02-21T14:29:32;12.90;99.90
10883;DHT22;5494;51.796;10.952;2023-02-21T14:32:22;12.90;99.90
10883;DHT22;5494;51.796;10.952;2023-02-21T14:34:56;13.00;99.90
10883;DHT22;5494;51.796;10.952;2023-02-21T14:37:31;13.00;99.90
10883;DHT22;5494;51.796;10.952;2023-02-21T14:40:25;12.90;99.90
10883;DHT22;5494;51.796;10.952;2023-02-21T14:43:21;12.80;99.90
10883;DHT22;5494;51.796;10.952;2023-02-21T14:46:09;12.80;99.90
10883;DHT22;5494;51.796;10.952;2023-02-21T14:49:20;12.80;99.90
10883;DHT22;5494;51.796;10.952;2023-02-21T14:52:37;12.80;99.90
10883;DHT22;5494;51.796;10.952;2023-02-21T14:55:36;12.80;99.90
10883;DHT22;5494;51.796;10.952;2023-02-21T14:58:45;12.70;99.90
10883;DHT22;5494;51.796;10.952;2023-02-21T15:01:39;12.60;99.90
10883;DHT22;5494;51.796;10.952;2023-02-21T15:04:18;12.50;99.90
10883;DHT22;5494;51.796;10.952;2023-02-21T15:06:59;12.50;99.90
10883;DHT22;5494;51.796;10.952;2023-02-21T15:09:35;12.50;99.90
10883;DHT22;5494;51.796;10.952;2023-02-21T15:12:06;12.50;99.90
10883;DHT22;5494;51.796;10.952;2023-02-21T15:14:47;12.40;99.90
10883;DHT22;5494;51.796;10.952;2023-02-21T15:17:21;12.40;99.90
10883;DHT22;5494;51.796;10.952;2023-02-21T15:20:02;12.30;99.90
10883;DHT22;5494;51.796;10.952;2023-02-21T15:22:32;12.20;99.90
10883;DHT22;5494;51.796;10.952;2023-02-21T15:25:16;12.20;99.90
10883;DHT22;5494;51.796;10.952;2023-02-21T15:27:56;12.20;99.90
10883;DHT22;5494;51.796;10.952;2023-02-21T15:30:33;12.20;99.90
10883;DHT22;5494;51.796;10.952;2023-02-21T15:33:07;12.30;99.90
10883;DHT22;5494;51.796;10.952;2023-02-21T15:35:44;12.20;99.90
10883;DHT22;5494;51.796;10.952;2023-02-21T15:38:25;12.30;99.90
10883;DHT22;5494;51.796;10.952;2023-02-21T15:41:00;12.30;99.90
10883;DHT22;5494;51.796;10.952;2023-02-21T15:43:42;12.30;99.90
10883;DHT22;5494;51.796;10.952;2023-02-21T15:46:19;12.30;99.90
10883;DHT22;5494;51.796;10.952;2023-02-21T15:48:53;12.20;99.90
10883;DHT22;5494;51.796;10.952;2023-02-21T15:51:26;12.20;99.90
10883;DHT22;5494;51.796;10.952;2023-02-21T15:54:26;12.10;99.90
10883;DHT22;5494;51.796;10.952;2023-02-21T15:57:01;12.10;99.90
10883;DHT22;5494;51.796;10.952;2023-02-21T15:59:35;12.00;99.90
10883;DHT22;5494;51.796;10.952;2023-02-21T16:02:16;12.00;99.90
10883;DHT22;5494;51.796;10.952;2023-02-21T16:04:49;12.00;99.90
10883;DHT22;5494;51.796;10.952;2023-02-21T16:07:28;11.90;99.90
10883;DHT22;5494;51.796;10.952;2023-02-21T16:10:02;11.90;99.90
10883;DHT22;5494;51.796;10.952;2023-02-21T16:12:35;11.80;99.90
10883;DHT22;5494;51.796;10.952;2023-02-21T16:15:07;11.80;99.90
10883;DHT22;5494;51.796;10.952;2023-02-21T16:17:53;11.80;99.90
10883;DHT22;5494;51.796;10.952;2023-02-21T16:20:26;11.70;99.90
10883;DHT22;5494;51.796;10.952;2023-02-21T16:23:20;11.70;99.90
10883;DHT22;5494;51.796;10.952;2023-02-21T16:26:00;11.70;99.90
10883;DHT22;5494;51.796;10.952;2023-02-21T16:28:30;11.70;99.90
10883;DHT22;5494;51.796;10.952;2023-02-21T16:31:00;11.70;99.90
10883;DHT22;5494;51.796;10.952;2023-02-21T16:33:31;11.70;99.90
10883;DHT22;5494;51.796;10.952;2023-02-21T16:36:06;11.70;99.90
10883;DHT22;5494;51.796;10.952;2023-02-21T16:38:36;11.60;99.90
10883;DHT22;5494;51.796;10.952;2023-02-21T16:41:04;11.60;99.90
10883;DHT22;5494;51.796;10.952;2023-02-21T16:43:32;11.60;99.90
10883;DHT22;5494;51.796;10.952;2023-02-21T16:45:59;11.60;99.90
10883;DHT22;5494;51.796;10.952;2023-02-21T16:48:30;11.60;99.90
10883;DHT22;5494;51.796;10.952;2023-02-21T16:51:01;11.60;99.90
10883;DHT22;5494;51.796;10.952;2023-02-21T16:53:31;11.50;99.90